createdAt,value
2023-04-15T00:01:49.393Z,82.38
2023-04-15T00:04:17.201Z,82.80
2023-04-15T00:06:52.893Z,82.45
2023-04-15T00:09:22.816Z,83.06
2023-04-15T00:11:51.576Z,82.39
2023-04-15T00:14:19.106Z,82.84
2023-04-15T00:16:46.757Z,83.50
2023-04-15T00:19:14.629Z,82.78
2023-04-15T00:21:42.182Z,82.81
2023-04-15T00:24:10.813Z,83.59
2023-04-15T00:26:39.783Z,83.79
2023-04-15T00:29:07.364Z,82.46
2023-04-15T00:31:36.861Z,82.89
2023-04-15T00:34:04.733Z,83.48
2023-04-15T00:36:33.844Z,83.39
2023-04-15T00:39:02.834Z,83.67
2023-04-15T00:41:30.578Z,83.71
2023-04-15T00:44:00.306Z,83.46
2023-04-15T00:46:30.934Z,84.88
2023-04-15T00:48:58.847Z,84.21
2023-04-15T00:51:26.701Z,84.37
2023-04-15T00:53:54.384Z,84.25
2023-04-15T00:56:24.365Z,84.87
2023-04-15T00:58:52.702Z,84.72
2023-04-15T01:01:23.262Z,85.31
2023-04-15T01:03:51.425Z,85.15
2023-04-15T01:06:19.392Z,84.66
2023-04-15T01:08:47.068Z,85.10
2023-04-15T01:11:16.199Z,85.68
2023-04-15T01:13:43.893Z,85.17
2023-04-15T01:16:13.108Z,85.55
2023-04-15T01:18:42.382Z,85.11
2023-04-15T01:21:10.624Z,85.06
2023-04-15T01:23:39.619Z,84.21
2023-04-15T01:26:09.853Z,84.96
2023-04-15T01:28:38.336Z,85.59
2023-04-15T01:31:10.066Z,84.69
2023-04-15T01:33:39.007Z,85.14
2023-04-15T01:36:09.615Z,85.23
2023-04-15T01:38:37.924Z,85.68
2023-04-15T01:41:07.533Z,86.11
2023-04-15T01:43:37.682Z,86.42
2023-04-15T01:54:23.752Z,86.30
2023-04-15T01:56:52.455Z,85.62
2023-04-15T01:59:21.606Z,86.30
2023-04-15T02:01:49.231Z,86.32
2023-04-15T02:04:17.948Z,86.75
2023-04-15T02:06:47.124Z,86.60
2023-04-15T02:09:15.089Z,86.13
2023-04-15T02:11:42.716Z,87.24
2023-04-15T02:14:10.387Z,86.45
2023-04-15T02:16:39.356Z,87.13
2023-04-15T02:19:08.845Z,87.24
2023-04-15T02:21:38.629Z,86.31
2023-04-15T02:24:06.646Z,86.68
2023-04-15T02:26:34.358Z,86.93
2023-04-15T02:29:02.079Z,87.27
2023-04-15T02:31:29.872Z,86.74
2023-04-15T02:34:01.238Z,86.27
2023-04-15T02:36:29.751Z,86.98
2023-04-15T02:38:57.592Z,87.08
2023-04-15T02:41:28.640Z,87.07
2023-04-15T02:43:56.797Z,87.59
2023-04-15T02:46:24.489Z,87.21
2023-04-15T02:48:53.334Z,87.59
2023-04-15T02:51:23.587Z,88.63
2023-04-15T02:53:51.277Z,88.85
2023-04-15T02:56:19.668Z,88.30
2023-04-15T02:58:50.472Z,88.48
2023-04-15T03:01:18.094Z,88.38
2023-04-15T03:03:46.100Z,88.38
2023-04-15T03:06:14.094Z,87.95
2023-04-15T03:08:43.071Z,88.60
2023-04-15T03:11:14.105Z,88.17
2023-04-15T03:13:43.108Z,88.13
2023-04-15T03:16:21.506Z,88.68
2023-04-15T03:18:49.268Z,88.75
2023-04-15T03:21:17.208Z,89.26
2023-04-15T03:23:48.165Z,89.36
2023-04-15T03:26:25.524Z,89.33
2023-04-15T03:28:53.629Z,89.36
2023-04-15T03:31:21.386Z,89.90
2023-04-15T03:33:49.096Z,89.70
2023-04-15T03:36:17.107Z,90.67
2023-04-15T03:38:44.765Z,90.96
2023-04-15T03:41:13.887Z,91.21
2023-04-15T03:43:41.440Z,90.53
2023-04-15T03:46:09.116Z,90.00
2023-04-15T03:48:36.670Z,90.11
2023-04-15T03:51:04.495Z,90.43
2023-04-15T03:53:32.062Z,90.67
2023-04-15T03:55:59.913Z,91.18
2023-04-15T03:58:28.855Z,90.80
2023-04-15T04:00:56.374Z,90.54
2023-04-15T04:03:24.155Z,91.31
2023-04-15T04:05:52.356Z,91.27
2023-04-15T04:08:21.640Z,91.35
2023-04-15T04:10:49.152Z,91.66
2023-04-15T04:13:16.995Z,91.59
2023-04-15T04:15:46.117Z,92.11
2023-04-15T04:18:13.724Z,92.15
2023-04-15T04:20:41.330Z,92.13
2023-04-15T04:23:08.952Z,92.09
2023-04-15T04:25:36.740Z,92.15
2023-04-15T04:28:04.696Z,92.04
2023-04-15T04:30:34.475Z,92.05
2023-04-15T04:33:03.578Z,92.33
2023-04-15T04:35:33.586Z,92.30
2023-04-15T04:38:01.290Z,91.88
2023-04-15T04:40:28.793Z,92.28
2023-04-15T04:42:56.594Z,92.34
2023-04-15T04:45:24.124Z,92.15
2023-04-15T04:47:51.938Z,91.76
2023-04-15T04:50:21.108Z,92.12
2023-04-15T04:52:48.685Z,91.91
2023-04-15T04:55:16.700Z,91.78
2023-04-15T04:57:44.448Z,92.02
2023-04-15T05:00:12.892Z,92.40
2023-04-15T05:02:41.779Z,92.77
2023-04-15T05:05:10.338Z,92.41
2023-04-15T05:07:39.571Z,92.56
2023-04-15T05:10:08.682Z,92.44
2023-04-15T05:12:37.355Z,92.86
2023-04-15T05:15:05.789Z,92.54
2023-04-15T05:17:35.158Z,92.05
2023-04-15T05:20:03.312Z,92.30
2023-04-15T05:22:31.043Z,91.92
2023-04-15T05:25:00.059Z,91.88
2023-04-15T05:27:27.639Z,92.07
2023-04-15T05:29:56.495Z,98.83
2023-04-15T05:32:24.215Z,92.92
2023-04-15T05:34:52.165Z,92.28
2023-04-15T05:37:20.782Z,91.87
2023-04-15T05:39:48.572Z,91.33
2023-04-15T05:42:17.649Z,90.29
2023-04-15T05:44:45.666Z,92.73
2023-04-15T05:47:13.265Z,91.33
2023-04-15T05:49:40.885Z,90.63
2023-04-15T05:52:08.463Z,90.05
2023-04-15T05:54:36.572Z,89.58
2023-04-15T05:57:04.319Z,89.38
2023-04-15T05:59:33.197Z,89.95
2023-04-15T06:02:00.898Z,89.46
2023-04-15T06:04:28.995Z,89.05
2023-04-15T06:06:56.857Z,89.37
2023-04-15T06:09:24.554Z,89.92
2023-04-15T06:11:52.898Z,90.76
2023-04-15T06:14:20.591Z,90.06
2023-04-15T06:16:49.461Z,89.69
2023-04-15T06:19:16.980Z,89.07
2023-04-15T06:21:45.052Z,88.75
2023-04-15T06:24:13.057Z,88.87
2023-04-15T06:26:40.593Z,89.19
2023-04-15T06:29:08.166Z,88.25
2023-04-15T06:31:35.855Z,87.65
2023-04-15T06:34:04.775Z,87.28
2023-04-15T06:36:32.377Z,86.78
2023-04-15T06:39:00.372Z,85.90
2023-04-15T06:41:28.111Z,85.83
2023-04-15T06:43:55.682Z,84.42
2023-04-15T06:46:23.385Z,85.32
2023-04-15T06:48:51.055Z,84.56
2023-04-15T06:51:20.202Z,84.39
2023-04-15T06:53:47.759Z,83.91
2023-04-15T06:56:15.708Z,83.47
2023-04-15T06:58:43.219Z,83.20
2023-04-15T07:01:10.908Z,82.55
2023-04-15T07:03:38.866Z,81.09
2023-04-15T07:06:07.371Z,81.50
2023-04-15T07:08:36.715Z,81.30
2023-04-15T07:11:04.221Z,79.78
2023-04-15T07:13:33.339Z,78.30
2023-04-15T07:16:00.894Z,77.54
2023-04-15T07:18:28.551Z,77.15
2023-04-15T07:20:56.120Z,75.47
2023-04-15T07:23:23.696Z,74.47
2023-04-15T07:25:54.062Z,74.08
2023-04-15T07:28:21.658Z,72.70
2023-04-15T07:30:49.733Z,72.41
2023-04-15T07:33:17.300Z,71.85
2023-04-15T07:35:45.174Z,71.66
2023-04-15T07:38:13.535Z,71.06
2023-04-15T07:40:42.267Z,69.53
2023-04-15T07:43:11.169Z,67.48
2023-04-15T07:45:38.686Z,66.95
2023-04-15T07:48:08.012Z,65.91
2023-04-15T07:50:35.673Z,63.27
2023-04-15T07:53:03.269Z,62.70
2023-04-15T07:55:31.063Z,61.69
2023-04-15T07:57:58.642Z,59.66
2023-04-15T08:00:28.149Z,58.38
2023-04-15T08:02:57.438Z,57.88
2023-04-15T08:05:25.723Z,59.08
2023-04-15T08:07:53.380Z,58.21
2023-04-15T08:10:21.418Z,58.07
2023-04-15T08:12:49.758Z,57.24
2023-04-15T08:15:17.992Z,56.92
2023-04-15T08:17:47.080Z,56.41
2023-04-15T08:20:14.609Z,57.94
2023-04-15T08:22:42.544Z,56.92
2023-04-15T08:25:10.627Z,55.91
2023-04-15T08:27:38.325Z,55.00
2023-04-15T08:30:07.185Z,55.45
2023-04-15T08:32:34.755Z,55.60
2023-04-15T08:35:03.813Z,57.37
2023-04-15T08:37:31.840Z,57.66
2023-04-15T08:39:59.388Z,55.57
2023-04-15T08:42:32.309Z,54.26
2023-04-15T08:45:00.865Z,54.13
2023-04-15T08:47:31.059Z,55.04
2023-04-15T08:49:59.165Z,54.38
2023-04-15T08:52:28.471Z,53.97
2023-04-15T08:54:58.607Z,53.87
2023-04-15T08:57:27.579Z,55.27
2023-04-15T08:59:57.227Z,53.68
2023-04-15T09:02:26.144Z,53.45
2023-04-15T09:04:54.342Z,51.26
2023-04-15T09:07:22.300Z,52.57
2023-04-15T09:09:51.652Z,52.08
2023-04-15T09:12:19.278Z,51.92
2023-04-15T09:14:47.277Z,52.83
2023-04-15T09:17:14.813Z,51.73
2023-04-15T09:19:42.429Z,52.15
2023-04-15T09:22:10.700Z,52.12
2023-04-15T09:24:40.916Z,50.90
2023-04-15T09:27:11.067Z,50.47
2023-04-15T09:29:38.803Z,48.33
2023-04-15T09:32:14.148Z,48.17
2023-04-15T09:34:41.890Z,50.45
2023-04-15T09:37:10.961Z,48.54
2023-04-15T09:39:49.964Z,49.07
2023-04-15T09:42:24.158Z,50.33
2023-04-15T09:44:52.586Z,49.87
2023-04-15T09:47:29.169Z,49.61
2023-04-15T09:49:58.327Z,49.62
2023-04-15T09:52:26.029Z,49.54
2023-04-15T09:54:56.014Z,49.26
2023-04-15T09:57:25.419Z,50.33
2023-04-15T09:59:53.162Z,49.57
2023-04-15T10:02:21.687Z,49.01
2023-04-15T10:04:50.270Z,48.04
2023-04-15T10:07:20.572Z,49.39
2023-04-15T10:09:49.580Z,48.90
2023-04-15T10:12:18.632Z,48.81
2023-04-15T10:14:52.416Z,48.81
2023-04-15T10:17:23.953Z,47.60
2023-04-15T10:19:55.394Z,45.96
2023-04-15T10:22:23.944Z,46.93
2023-04-15T10:24:53.674Z,45.84
2023-04-15T10:27:22.024Z,46.27
2023-04-15T10:29:52.024Z,46.32
2023-04-15T10:32:21.688Z,46.72
2023-04-15T10:34:51.879Z,48.05
2023-04-15T10:37:22.800Z,47.27
2023-04-15T10:39:50.697Z,44.82
2023-04-15T10:42:20.182Z,43.37
2023-04-15T10:44:57.367Z,44.08
2023-04-15T10:47:25.485Z,43.80
2023-04-15T10:49:58.444Z,43.18
2023-04-15T10:52:28.602Z,44.18
2023-04-15T10:55:04.485Z,44.65
2023-04-15T10:57:37.037Z,43.52
2023-04-15T11:00:14.171Z,42.01
2023-04-15T11:02:47.577Z,41.04
2023-04-15T11:05:16.629Z,39.52
2023-04-15T11:07:53.244Z,38.17
2023-04-15T11:10:54.794Z,41.03
2023-04-15T11:13:29.148Z,41.60
2023-04-15T11:16:02.524Z,42.03
2023-04-15T11:18:32.769Z,42.52
2023-04-15T11:21:03.405Z,42.64
2023-04-15T11:23:33.981Z,42.02
2023-04-15T11:26:05.385Z,43.05
2023-04-15T11:28:34.308Z,43.83
2023-04-15T11:31:10.618Z,42.45
2023-04-15T11:33:38.560Z,41.15
2023-04-15T11:36:06.733Z,41.57
2023-04-15T11:38:35.615Z,38.87
2023-04-15T11:41:03.196Z,38.36
2023-04-15T11:43:35.294Z,38.88
2023-04-15T11:46:03.966Z,38.79
2023-04-15T11:48:35.040Z,37.99
2023-04-15T11:51:04.103Z,36.63
2023-04-15T11:53:41.110Z,36.70
2023-04-15T11:56:11.013Z,36.43
2023-04-15T11:58:43.296Z,37.40
2023-04-15T12:01:11.244Z,36.68
2023-04-15T12:03:42.416Z,35.75
2023-04-15T12:06:16.521Z,34.25
2023-04-15T12:09:10.694Z,34.72
2023-04-15T12:11:40.732Z,37.51
2023-04-15T12:14:12.465Z,37.30
2023-04-15T12:16:46.705Z,36.78
2023-04-15T12:19:20.277Z,36.29
2023-04-15T12:21:49.303Z,36.29
2023-04-15T12:24:21.088Z,33.95
2023-04-15T12:26:50.391Z,34.33
2023-04-15T12:29:18.669Z,34.65
2023-04-15T12:31:53.774Z,32.34
2023-04-15T12:34:29.914Z,31.48
2023-04-15T12:36:58.756Z,32.39
2023-04-15T12:39:30.499Z,32.32
2023-04-15T12:41:59.256Z,30.18
2023-04-15T12:44:27.831Z,31.97
2023-04-15T12:46:55.909Z,30.81
2023-04-15T12:49:24.627Z,30.25
2023-04-15T12:51:57.690Z,30.64
2023-04-15T12:54:25.219Z,30.26
2023-04-15T12:56:54.114Z,29.23
2023-04-15T12:59:23.690Z,29.31
2023-04-15T13:01:52.533Z,28.24
2023-04-15T13:04:21.378Z,29.32
2023-04-15T13:06:49.114Z,29.58
2023-04-15T13:09:18.151Z,29.18
2023-04-15T13:11:45.741Z,30.45
2023-04-15T13:14:13.438Z,30.45
2023-04-15T13:16:41.684Z,30.70
2023-04-15T13:19:09.381Z,32.19
2023-04-15T13:21:36.902Z,33.37
2023-04-15T13:24:06.972Z,34.34
2023-04-15T13:26:36.194Z,34.19
2023-04-15T13:29:04.803Z,34.15
2023-04-15T13:34:00.084Z,34.80
2023-04-15T13:36:27.736Z,36.36
2023-04-15T13:38:55.735Z,36.04
2023-04-15T13:41:23.349Z,36.34
2023-04-15T13:43:52.330Z,37.20
2023-04-15T13:46:20.100Z,37.04
2023-04-15T13:48:47.803Z,38.00
2023-04-15T13:51:15.389Z,38.58
2023-04-15T13:53:42.914Z,39.27
2023-04-15T13:56:11.041Z,39.85
2023-04-15T13:58:39.019Z,40.48
2023-04-15T14:01:08.053Z,40.28
2023-04-15T14:03:36.943Z,41.27
2023-04-15T14:06:05.562Z,40.96
2023-04-15T14:08:33.141Z,41.12
2023-04-15T14:11:00.786Z,41.53
2023-04-15T14:13:28.476Z,42.24
2023-04-15T14:15:57.493Z,42.63
2023-04-15T14:18:26.739Z,42.47
2023-04-15T14:20:54.508Z,42.82
2023-04-15T14:23:22.038Z,42.29
2023-04-15T14:25:49.860Z,42.29
2023-04-15T14:28:17.444Z,41.84
2023-04-15T14:30:45.103Z,41.39
2023-04-15T14:33:12.966Z,42.33
2023-04-15T14:35:41.889Z,41.75
2023-04-15T14:38:10.978Z,41.50
2023-04-15T14:40:39.043Z,41.14
2023-04-15T14:43:06.639Z,41.12
2023-04-15T14:45:34.215Z,41.37
2023-04-15T14:48:02.304Z,41.76
2023-04-15T14:50:29.972Z,41.61
2023-04-15T14:52:59.604Z,41.56
2023-04-15T14:55:27.245Z,41.86
2023-04-15T14:57:54.941Z,42.25
2023-04-15T15:00:22.579Z,42.28
2023-04-15T15:02:50.289Z,41.50
2023-04-15T15:05:18.149Z,41.16
2023-04-15T15:07:45.901Z,40.64
2023-04-15T15:10:14.927Z,40.52
2023-04-15T15:12:42.513Z,39.91
2023-04-15T15:15:19.832Z,39.49
2023-04-15T15:17:53.054Z,39.35
2023-04-15T15:20:20.914Z,39.68
2023-04-15T15:22:48.588Z,40.53
2023-04-15T15:25:17.762Z,40.92
2023-04-15T15:27:45.424Z,40.78
2023-04-15T15:30:14.075Z,40.48
2023-04-15T15:32:43.129Z,40.16
2023-04-15T15:35:11.380Z,40.50
2023-04-15T15:37:39.256Z,40.49
2023-04-15T15:40:08.122Z,40.93
2023-04-15T15:42:37.080Z,41.09
2023-04-15T15:45:06.123Z,41.81
2023-04-15T15:47:33.811Z,46.10
2023-04-15T15:50:03.026Z,42.62
2023-04-15T15:52:31.366Z,43.16
2023-04-15T15:54:58.962Z,44.90
2023-04-15T15:57:26.685Z,45.95
2023-04-15T16:00:10.220Z,46.99
2023-04-15T16:03:04.931Z,47.30
2023-04-15T16:05:28.415Z,48.14
2023-04-15T16:07:58.907Z,49.50
2023-04-15T16:10:26.659Z,50.94
2023-04-15T16:12:54.313Z,51.86
2023-04-15T16:15:23.870Z,54.34
2023-04-15T16:17:51.679Z,55.01
2023-04-15T16:20:19.532Z,55.60
2023-04-15T16:22:47.117Z,57.00
2023-04-15T16:25:14.692Z,58.00
2023-04-15T16:27:57.255Z,58.75
2023-04-15T16:30:30.263Z,59.81
2023-04-15T16:32:57.951Z,60.53
2023-04-15T16:35:25.706Z,61.19
2023-04-15T16:37:53.262Z,61.04
2023-04-15T16:40:20.900Z,61.57
2023-04-15T16:42:48.482Z,61.75
2023-04-15T16:45:16.250Z,63.04
2023-04-15T16:47:45.354Z,64.64
2023-04-15T16:50:12.928Z,65.21
2023-04-15T16:52:40.516Z,66.24
2023-04-15T16:55:08.295Z,67.12
2023-04-15T16:57:54.041Z,68.08
2023-04-15T17:00:23.512Z,69.36
2023-04-15T17:02:52.554Z,70.51
2023-04-15T17:05:20.403Z,71.95
2023-04-15T17:07:48.033Z,72.53
2023-04-15T17:10:15.737Z,74.47
2023-04-15T17:12:43.271Z,75.73
2023-04-15T17:15:11.290Z,77.30
2023-04-15T17:17:38.854Z,77.35
2023-04-15T17:20:08.456Z,79.12
2023-04-15T17:22:36.055Z,79.57
2023-04-15T17:25:04.528Z,80.46
2023-04-15T17:27:32.094Z,81.44
2023-04-15T17:29:59.620Z,83.11
2023-04-15T17:32:31.615Z,83.62
2023-04-15T17:34:59.455Z,84.71
2023-04-15T17:37:28.353Z,85.23
2023-04-15T17:39:55.925Z,85.77
2023-04-15T17:42:23.514Z,86.50
2023-04-15T17:44:51.069Z,87.24
2023-04-15T17:47:18.825Z,86.71
2023-04-15T17:49:48.248Z,88.96
2023-04-15T17:52:16.220Z,88.87
2023-04-15T17:54:46.936Z,89.31
2023-04-15T17:57:14.632Z,89.52
2023-04-15T17:59:43.929Z,89.91
2023-04-15T18:02:11.828Z,91.56
2023-04-15T18:04:39.986Z,90.86
2023-04-15T18:07:07.704Z,90.74
2023-04-15T18:09:36.094Z,91.44
2023-04-15T18:12:07.505Z,91.32
2023-04-15T18:14:35.338Z,91.63
2023-04-15T18:17:03.333Z,92.17
2023-04-15T18:19:31.682Z,92.10
2023-04-15T18:21:59.835Z,92.16
2023-04-15T18:24:27.416Z,92.65
2023-04-15T18:26:55.062Z,93.22
2023-04-15T18:29:23.968Z,93.39
2023-04-15T18:31:51.655Z,93.46
2023-04-15T18:34:19.271Z,94.39
2023-04-15T18:36:47.178Z,94.08
2023-04-15T18:39:15.083Z,93.88
2023-04-15T18:41:42.659Z,94.80
2023-04-15T18:44:10.842Z,95.18
2023-04-15T18:46:39.840Z,94.92
2023-04-15T18:49:07.998Z,94.64
2023-04-15T18:51:35.910Z,94.68
2023-04-15T18:54:03.462Z,94.53
2023-04-15T18:56:31.800Z,94.07
2023-04-15T18:59:19.060Z,93.99
2023-04-15T19:01:49.368Z,94.74
2023-04-15T19:04:17.012Z,95.50
2023-04-15T19:06:44.796Z,95.37
2023-04-15T19:09:12.478Z,95.36
2023-04-15T19:11:39.998Z,94.86
2023-04-15T19:14:07.734Z,94.21
2023-04-15T19:16:35.382Z,94.31
2023-04-15T19:19:05.672Z,94.51
2023-04-15T19:21:33.646Z,95.34
2023-04-15T19:24:01.567Z,95.11
2023-04-15T19:26:29.323Z,95.61
2023-04-15T19:28:58.874Z,95.12
2023-04-15T19:31:26.538Z,95.95
2023-04-15T19:33:54.169Z,96.51
2023-04-15T19:36:23.199Z,96.57
2023-04-15T19:38:50.940Z,96.06
2023-04-15T19:41:18.472Z,96.53
2023-04-15T19:43:46.155Z,96.49
2023-04-15T19:46:13.962Z,96.50
2023-04-15T19:48:41.666Z,97.03
2023-04-15T19:51:09.440Z,96.48
2023-04-15T19:53:38.326Z,97.42
2023-04-15T19:56:06.361Z,97.05
2023-04-15T19:58:33.976Z,97.12
2023-04-15T20:01:02.243Z,97.68
2023-04-15T20:03:30.014Z,98.06
2023-04-15T20:05:57.864Z,98.41
2023-04-15T20:08:25.437Z,98.36
2023-04-15T20:10:55.551Z,98.21
2023-04-15T20:13:23.191Z,98.55
2023-04-15T20:15:50.802Z,97.85
2023-04-15T20:18:18.464Z,98.90
2023-04-15T20:20:46.263Z,98.75
2023-04-15T20:23:13.975Z,99.08
2023-04-15T20:25:43.148Z,97.88
2023-04-15T20:28:12.407Z,98.42
2023-04-15T20:30:40.230Z,99.06
2023-04-15T20:33:08.228Z,97.86
2023-04-15T20:35:35.906Z,98.00
2023-04-15T20:38:04.472Z,98.62
2023-04-15T20:40:33.619Z,99.28
2023-04-15T20:43:01.356Z,98.52
2023-04-15T20:45:30.290Z,98.57
2023-04-15T20:47:57.918Z,98.94
2023-04-15T20:50:25.798Z,98.73
2023-04-15T20:52:53.416Z,98.84
2023-04-15T20:55:21.257Z,99.45
2023-04-15T20:57:49.344Z,99.85
2023-04-15T21:00:17.083Z,100.00
2023-04-15T21:02:46.517Z,100.00
2023-04-15T21:05:14.259Z,100.00
2023-04-15T21:07:41.976Z,100.00
2023-04-15T21:10:10.218Z,98.23
2023-04-15T21:12:59.506Z,99.23
2023-04-15T21:15:27.240Z,99.17
2023-04-15T21:17:56.384Z,99.27
2023-04-15T21:20:23.986Z,99.67
2023-04-15T21:22:52.860Z,100.00
2023-04-15T21:25:20.803Z,100.00
2023-04-15T21:27:48.441Z,100.00
2023-04-15T21:30:16.127Z,100.00
2023-04-15T21:32:43.930Z,100.00
2023-04-15T21:35:13.124Z,100.00
2023-04-15T21:37:40.879Z,100.00
2023-04-15T21:40:09.907Z,100.00
2023-04-15T21:42:37.739Z,100.00
2023-04-15T21:45:06.046Z,100.00
2023-04-15T21:48:06.776Z,100.00
2023-04-15T21:50:23.913Z,100.00
2023-04-15T21:52:51.579Z,100.00
2023-04-15T21:55:19.460Z,100.00
2023-04-15T21:57:47.106Z,100.00
2023-04-15T22:00:15.857Z,100.00
2023-04-15T22:02:43.761Z,100.00
2023-04-15T22:05:11.434Z,100.00
2023-04-15T22:07:40.543Z,100.00
2023-04-15T22:10:09.262Z,100.00
2023-04-15T22:12:36.948Z,100.00
2023-04-15T22:15:05.157Z,100.00
2023-04-15T22:17:33.031Z,100.00
2023-04-15T22:20:00.721Z,100.00
2023-04-15T22:22:44.180Z,100.00
2023-04-15T22:25:13.749Z,100.00
2023-04-15T22:27:41.352Z,100.00
2023-04-15T22:30:09.851Z,100.00
2023-04-15T22:32:37.580Z,100.00
2023-04-15T22:35:06.636Z,100.00
2023-04-15T22:37:34.403Z,100.00
2023-04-15T22:40:02.796Z,100.00
2023-04-15T22:42:31.721Z,100.00
2023-04-15T22:44:59.397Z,100.00
2023-04-15T22:47:27.117Z,100.00
2023-04-15T22:49:54.840Z,100.00
2023-04-15T22:52:30.175Z,100.00
2023-04-15T22:54:58.721Z,100.00
2023-04-15T22:57:27.712Z,100.00
2023-04-15T22:59:57.066Z,100.00
2023-04-15T23:02:25.076Z,100.00
2023-04-15T23:04:53.065Z,100.00
2023-04-15T23:07:20.794Z,100.00
2023-04-15T23:09:48.392Z,100.00
2023-04-15T23:12:16.122Z,100.00
2023-04-15T23:14:43.740Z,100.00
2023-04-15T23:17:12.729Z,100.00
2023-04-15T23:19:40.564Z,100.00
2023-04-15T23:22:10.493Z,100.00
2023-04-15T23:24:38.181Z,100.00
2023-04-15T23:27:05.902Z,100.00
2023-04-15T23:29:33.598Z,100.00
2023-04-15T23:32:01.367Z,100.00
2023-04-15T23:34:30.483Z,100.00
2023-04-15T23:36:58.096Z,100.00
2023-04-15T23:39:25.941Z,100.00
2023-04-15T23:41:54.027Z,100.00
2023-04-15T23:44:21.706Z,100.00
2023-04-15T23:46:49.398Z,100.00
2023-04-15T23:49:20.123Z,100.00
2023-04-15T23:51:49.398Z,100.00
2023-04-15T23:54:17.060Z,100.00
2023-04-15T23:56:44.647Z,100.00
2023-04-15T23:59:12.296Z,100.00
